sensor_id;sensor_type;location;lat;lon;timestamp;temperature;humidity
82788;DHT22;72529;51.786;4.662;2023-08-30T00:00:10;15.97;73.23
82788;DHT22;72529;51.786;4.662;2023-08-30T00:02:35;16.01;73.34
82788;DHT22;72529;51.786;4.662;2023-08-30T00:05:03;15.94;73.43
82788;DHT22;72529;51.786;4.662;2023-08-30T00:07:29;15.96;73.53
82788;DHT22;72529;51.786;4.662;2023-08-30T00:09:56;15.93;73.44
82788;DHT22;72529;51.786;4.662;2023-08-30T00:12:21;15.91;73.48
82788;DHT22;72529;51.786;4.662;2023-08-30T00:14:47;15.89;73.49
82788;DHT22;72529;51.786;4.662;2023-08-30T00:17:13;15.89;73.51
82788;DHT22;72529;51.786;4.662;2023-08-30T00:19:39;15.79;73.50
82788;DHT22;72529;51.786;4.662;2023-08-30T00:22:04;15.77;73.26
82788;DHT22;72529;51.786;4.662;2023-08-30T00:24:33;15.76;73.06
82788;DHT22;72529;51.786;4.662;2023-08-30T00:26:58;15.74;73.47
82788;DHT22;72529;51.786;4.662;2023-08-30T00:29:24;15.67;73.92
82788;DHT22;72529;51.786;4.662;2023-08-30T00:31:49;15.74;72.06
82788;DHT22;72529;51.786;4.662;2023-08-30T00:34:15;15.76;72.07
82788;DHT22;72529;51.786;4.662;2023-08-30T00:36:40;15.76;72.17
82788;DHT22;72529;51.786;4.662;2023-08-30T00:39:06;15.83;71.04
82788;DHT22;72529;51.786;4.662;2023-08-30T00:41:31;15.89;70.19
82788;DHT22;72529;51.786;4.662;2023-08-30T00:43:57;15.87;70.41
82788;DHT22;72529;51.786;4.662;2023-08-30T00:46:22;15.89;71.85
82788;DHT22;72529;51.786;4.662;2023-08-30T00:48:48;15.90;71.85
82788;DHT22;72529;51.786;4.662;2023-08-30T00:51:13;15.87;72.02
82788;DHT22;72529;51.786;4.662;2023-08-30T00:53:39;15.83;71.85
82788;DHT22;72529;51.786;4.662;2023-08-30T00:56:05;15.79;72.31
82788;DHT22;72529;51.786;4.662;2023-08-30T00:58:31;15.74;72.50
82788;DHT22;72529;51.786;4.662;2023-08-30T01:00:57;15.70;72.06
82788;DHT22;72529;51.786;4.662;2023-08-30T01:03:23;15.70;72.63
82788;DHT22;72529;51.786;4.662;2023-08-30T01:05:49;15.66;73.17
82788;DHT22;72529;51.786;4.662;2023-08-30T01:08:14;15.61;73.09
82788;DHT22;72529;51.786;4.662;2023-08-30T01:13:12;15.46;72.77
82788;DHT22;72529;51.786;4.662;2023-08-30T01:15:40;15.46;72.75
82788;DHT22;72529;51.786;4.662;2023-08-30T01:18:09;15.46;73.22
82788;DHT22;72529;51.786;4.662;2023-08-30T01:20:38;15.47;73.05
82788;DHT22;72529;51.786;4.662;2023-08-30T01:23:29;15.46;73.31
82788;DHT22;72529;51.786;4.662;2023-08-30T01:26:13;15.42;73.32
82788;DHT22;72529;51.786;4.662;2023-08-30T01:28:40;15.40;73.61
82788;DHT22;72529;51.786;4.662;2023-08-30T01:31:08;15.35;73.79
82788;DHT22;72529;51.786;4.662;2023-08-30T01:33:35;15.33;73.77
82788;DHT22;72529;51.786;4.662;2023-08-30T01:36:03;15.30;73.62
82788;DHT22;72529;51.786;4.662;2023-08-30T01:38:32;15.33;73.79
82788;DHT22;72529;51.786;4.662;2023-08-30T01:40:59;15.30;73.59
82788;DHT22;72529;51.786;4.662;2023-08-30T01:43:27;15.32;73.46
82788;DHT22;72529;51.786;4.662;2023-08-30T01:45:57;15.29;73.59
82788;DHT22;72529;51.786;4.662;2023-08-30T01:48:24;15.25;73.72
82788;DHT22;72529;51.786;4.662;2023-08-30T01:50:50;15.18;73.60
82788;DHT22;72529;51.786;4.662;2023-08-30T01:53:16;15.15;73.72
82788;DHT22;72529;51.786;4.662;2023-08-30T01:55:43;15.08;74.04
82788;DHT22;72529;51.786;4.662;2023-08-30T01:58:09;15.09;73.86
82788;DHT22;72529;51.786;4.662;2023-08-30T02:00:35;15.02;73.57
82788;DHT22;72529;51.786;4.662;2023-08-30T02:03:10;14.98;73.30
82788;DHT22;72529;51.786;4.662;2023-08-30T02:08:17;14.85;73.77
82788;DHT22;72529;51.786;4.662;2023-08-30T02:10:51;14.84;74.01
82788;DHT22;72529;51.786;4.662;2023-08-30T02:13:22;14.81;74.00
82788;DHT22;72529;51.786;4.662;2023-08-30T02:15:53;14.79;74.11
82788;DHT22;72529;51.786;4.662;2023-08-30T02:18:20;14.79;74.22
82788;DHT22;72529;51.786;4.662;2023-08-30T02:20:46;14.82;74.12
82788;DHT22;72529;51.786;4.662;2023-08-30T02:23:12;14.85;73.96
82788;DHT22;72529;51.786;4.662;2023-08-30T02:25:37;14.89;73.89
82788;DHT22;72529;51.786;4.662;2023-08-30T02:28:03;14.89;73.89
82788;DHT22;72529;51.786;4.662;2023-08-30T02:30:29;14.91;74.04
82788;DHT22;72529;51.786;4.662;2023-08-30T02:32:54;14.92;73.83
82788;DHT22;72529;51.786;4.662;2023-08-30T02:35:20;14.96;73.94
82788;DHT22;72529;51.786;4.662;2023-08-30T02:37:45;15.02;73.99
82788;DHT22;72529;51.786;4.662;2023-08-30T02:40:11;15.03;73.39
82788;DHT22;72529;51.786;4.662;2023-08-30T02:42:36;15.00;73.03
82788;DHT22;72529;51.786;4.662;2023-08-30T02:45:02;14.99;73.29
82788;DHT22;72529;51.786;4.662;2023-08-30T02:47:27;15.03;73.64
82788;DHT22;72529;51.786;4.662;2023-08-30T02:49:53;15.06;73.44
82788;DHT22;72529;51.786;4.662;2023-08-30T02:52:18;15.03;73.59
82788;DHT22;72529;51.786;4.662;2023-08-30T02:54:44;15.05;73.44
82788;DHT22;72529;51.786;4.662;2023-08-30T02:57:09;15.12;73.53
82788;DHT22;72529;51.786;4.662;2023-08-30T02:59:35;15.19;73.26
82788;DHT22;72529;51.786;4.662;2023-08-30T03:02:00;15.19;72.90
82788;DHT22;72529;51.786;4.662;2023-08-30T03:04:27;15.18;72.99
82788;DHT22;72529;51.786;4.662;2023-08-30T03:06:52;15.20;73.01
82788;DHT22;72529;51.786;4.662;2023-08-30T03:09:18;15.16;73.18
82788;DHT22;72529;51.786;4.662;2023-08-30T03:11:43;15.16;73.03
82788;DHT22;72529;51.786;4.662;2023-08-30T03:14:09;15.09;73.07
82788;DHT22;72529;51.786;4.662;2023-08-30T03:16:34;15.06;73.46
82788;DHT22;72529;51.786;4.662;2023-08-30T03:19:00;15.00;73.26
82788;DHT22;72529;51.786;4.662;2023-08-30T03:21:25;14.92;73.58
82788;DHT22;72529;51.786;4.662;2023-08-30T03:23:51;14.93;73.64
82788;DHT22;72529;51.786;4.662;2023-08-30T03:26:17;14.92;73.40
82788;DHT22;72529;51.786;4.662;2023-08-30T03:28:43;14.88;73.31
82788;DHT22;72529;51.786;4.662;2023-08-30T03:31:17;14.86;73.47
82788;DHT22;72529;51.786;4.662;2023-08-30T03:33:43;14.81;73.33
82788;DHT22;72529;51.786;4.662;2023-08-30T03:36:13;14.82;73.56
82788;DHT22;72529;51.786;4.662;2023-08-30T03:38:39;14.84;73.50
82788;DHT22;72529;51.786;4.662;2023-08-30T03:41:05;14.89;73.73
82788;DHT22;72529;51.786;4.662;2023-08-30T03:43:31;14.88;73.72
82788;DHT22;72529;51.786;4.662;2023-08-30T03:45:58;14.89;73.92
82788;DHT22;72529;51.786;4.662;2023-08-30T03:48:23;14.89;73.55
82788;DHT22;72529;51.786;4.662;2023-08-30T03:50:49;14.89;73.90
82788;DHT22;72529;51.786;4.662;2023-08-30T03:53:14;14.84;73.82
82788;DHT22;72529;51.786;4.662;2023-08-30T03:55:40;14.91;73.88
82788;DHT22;72529;51.786;4.662;2023-08-30T03:58:06;14.85;73.84
82788;DHT22;72529;51.786;4.662;2023-08-30T04:00:31;14.85;74.13
82788;DHT22;72529;51.786;4.662;2023-08-30T04:02:57;14.92;74.16
82788;DHT22;72529;51.786;4.662;2023-08-30T04:05:22;14.99;74.04
82788;DHT22;72529;51.786;4.662;2023-08-30T04:07:48;15.06;73.91
82788;DHT22;72529;51.786;4.662;2023-08-30T04:10:13;15.08;74.20
82788;DHT22;72529;51.786;4.662;2023-08-30T04:12:38;15.10;73.84
82788;DHT22;72529;51.786;4.662;2023-08-30T04:15:04;15.19;73.81
82788;DHT22;72529;51.786;4.662;2023-08-30T04:17:30;15.08;74.14
82788;DHT22;72529;51.786;4.662;2023-08-30T04:19:55;15.09;74.36
82788;DHT22;72529;51.786;4.662;2023-08-30T04:22:21;15.18;74.00
82788;DHT22;72529;51.786;4.662;2023-08-30T04:24:46;15.16;74.12
82788;DHT22;72529;51.786;4.662;2023-08-30T04:27:12;15.19;74.27
82788;DHT22;72529;51.786;4.662;2023-08-30T04:29:37;15.28;74.06
82788;DHT22;72529;51.786;4.662;2023-08-30T04:32:03;15.22;73.96
82788;DHT22;72529;51.786;4.662;2023-08-30T04:34:28;15.20;74.49
82788;DHT22;72529;51.786;4.662;2023-08-30T04:36:56;15.19;74.55
82788;DHT22;72529;51.786;4.662;2023-08-30T04:39:21;15.23;74.46
82788;DHT22;72529;51.786;4.662;2023-08-30T04:41:47;15.28;74.38
82788;DHT22;72529;51.786;4.662;2023-08-30T04:44:12;15.33;74.47
82788;DHT22;72529;51.786;4.662;2023-08-30T04:46:38;15.30;74.32
82788;DHT22;72529;51.786;4.662;2023-08-30T04:49:03;15.28;74.45
82788;DHT22;72529;51.786;4.662;2023-08-30T04:51:28;15.33;74.65
82788;DHT22;72529;51.786;4.662;2023-08-30T04:53:54;15.36;74.88
82788;DHT22;72529;51.786;4.662;2023-08-30T04:56:19;15.32;74.69
82788;DHT22;72529;51.786;4.662;2023-08-30T04:58:45;15.38;74.80
82788;DHT22;72529;51.786;4.662;2023-08-30T05:01:10;15.39;74.92
82788;DHT22;72529;51.786;4.662;2023-08-30T05:03:39;15.36;75.05
82788;DHT22;72529;51.786;4.662;2023-08-30T05:06:04;15.38;75.08
82788;DHT22;72529;51.786;4.662;2023-08-30T05:08:30;15.42;75.17
82788;DHT22;72529;51.786;4.662;2023-08-30T05:10:55;15.53;75.06
82788;DHT22;72529;51.786;4.662;2023-08-30T05:13:21;15.59;75.58
82788;DHT22;72529;51.786;4.662;2023-08-30T05:15:46;15.53;75.80
82788;DHT22;72529;51.786;4.662;2023-08-30T05:18:12;15.54;76.49
82788;DHT22;72529;51.786;4.662;2023-08-30T05:20:37;15.56;76.19
82788;DHT22;72529;51.786;4.662;2023-08-30T05:23:03;15.56;76.72
82788;DHT22;72529;51.786;4.662;2023-08-30T05:25:28;15.63;76.98
82788;DHT22;72529;51.786;4.662;2023-08-30T05:27:53;15.66;77.35
82788;DHT22;72529;51.786;4.662;2023-08-30T05:30:19;15.63;78.50
82788;DHT22;72529;51.786;4.662;2023-08-30T05:32:45;15.64;78.45
82788;DHT22;72529;51.786;4.662;2023-08-30T05:35:10;15.53;78.71
82788;DHT22;72529;51.786;4.662;2023-08-30T05:37:36;15.53;79.24
82788;DHT22;72529;51.786;4.662;2023-08-30T05:40:01;15.61;79.49
82788;DHT22;72529;51.786;4.662;2023-08-30T05:42:28;15.59;79.47
82788;DHT22;72529;51.786;4.662;2023-08-30T05:44:53;15.57;79.27
82788;DHT22;72529;51.786;4.662;2023-08-30T05:47:20;15.53;79.70
82788;DHT22;72529;51.786;4.662;2023-08-30T05:49:46;15.54;79.30
82788;DHT22;72529;51.786;4.662;2023-08-30T05:52:11;15.56;80.12
82788;DHT22;72529;51.786;4.662;2023-08-30T05:54:36;15.64;80.10
82788;DHT22;72529;51.786;4.662;2023-08-30T05:57:02;15.57;79.95
82788;DHT22;72529;51.786;4.662;2023-08-30T05:59:28;15.61;80.02
82788;DHT22;72529;51.786;4.662;2023-08-30T06:01:53;15.69;79.80
82788;DHT22;72529;51.786;4.662;2023-08-30T06:04:19;15.57;79.78
82788;DHT22;72529;51.786;4.662;2023-08-30T06:06:45;15.44;80.40
82788;DHT22;72529;51.786;4.662;2023-08-30T06:09:10;15.42;80.87
82788;DHT22;72529;51.786;4.662;2023-08-30T06:11:38;15.43;80.59
82788;DHT22;72529;51.786;4.662;2023-08-30T06:14:04;15.42;81.16
82788;DHT22;72529;51.786;4.662;2023-08-30T06:16:30;15.42;81.21
82788;DHT22;72529;51.786;4.662;2023-08-30T06:18:55;15.35;80.75
82788;DHT22;72529;51.786;4.662;2023-08-30T06:21:21;15.26;81.06
82788;DHT22;72529;51.786;4.662;2023-08-30T06:23:46;15.15;81.73
82788;DHT22;72529;51.786;4.662;2023-08-30T06:26:11;15.10;81.61
82788;DHT22;72529;51.786;4.662;2023-08-30T06:28:37;15.16;82.33
82788;DHT22;72529;51.786;4.662;2023-08-30T06:31:02;15.23;81.32
82788;DHT22;72529;51.786;4.662;2023-08-30T06:33:28;15.26;81.47
82788;DHT22;72529;51.786;4.662;2023-08-30T06:35:53;15.23;81.82
82788;DHT22;72529;51.786;4.662;2023-08-30T06:38:20;15.26;81.48
82788;DHT22;72529;51.786;4.662;2023-08-30T06:40:46;15.38;81.38
82788;DHT22;72529;51.786;4.662;2023-08-30T06:43:12;15.32;82.06
82788;DHT22;72529;51.786;4.662;2023-08-30T06:45:41;15.32;81.90
82788;DHT22;72529;51.786;4.662;2023-08-30T06:48:07;15.40;81.63
82788;DHT22;72529;51.786;4.662;2023-08-30T06:50:33;15.36;82.18
82788;DHT22;72529;51.786;4.662;2023-08-30T06:52:59;15.40;82.47
82788;DHT22;72529;51.786;4.662;2023-08-30T06:55:24;15.44;82.09
82788;DHT22;72529;51.786;4.662;2023-08-30T06:57:49;15.50;82.16
82788;DHT22;72529;51.786;4.662;2023-08-30T07:00:16;15.53;81.83
82788;DHT22;72529;51.786;4.662;2023-08-30T07:02:41;15.56;82.13
82788;DHT22;72529;51.786;4.662;2023-08-30T07:05:10;15.61;82.13
82788;DHT22;72529;51.786;4.662;2023-08-30T07:07:36;15.66;82.06
82788;DHT22;72529;51.786;4.662;2023-08-30T07:10:01;15.67;81.86
82788;DHT22;72529;51.786;4.662;2023-08-30T07:12:28;15.64;82.02
82788;DHT22;72529;51.786;4.662;2023-08-30T07:14:53;15.63;82.11
82788;DHT22;72529;51.786;4.662;2023-08-30T07:17:19;15.59;82.48
82788;DHT22;72529;51.786;4.662;2023-08-30T07:19:45;15.54;82.60
82788;DHT22;72529;51.786;4.662;2023-08-30T07:22:10;15.56;82.33
82788;DHT22;72529;51.786;4.662;2023-08-30T07:24:36;15.56;83.16
82788;DHT22;72529;51.786;4.662;2023-08-30T07:27:02;15.64;82.57
82788;DHT22;72529;51.786;4.662;2023-08-30T07:29:28;15.67;82.64
82788;DHT22;72529;51.786;4.662;2023-08-30T07:31:54;15.70;82.59
82788;DHT22;72529;51.786;4.662;2023-08-30T07:34:20;15.70;82.55
82788;DHT22;72529;51.786;4.662;2023-08-30T07:36:46;15.71;83.31
82788;DHT22;72529;51.786;4.662;2023-08-30T07:39:12;15.83;82.79
82788;DHT22;72529;51.786;4.662;2023-08-30T07:41:37;15.84;82.49
82788;DHT22;72529;51.786;4.662;2023-08-30T07:44:03;15.87;82.38
82788;DHT22;72529;51.786;4.662;2023-08-30T07:46:28;15.86;82.90
82788;DHT22;72529;51.786;4.662;2023-08-30T07:48:54;15.98;82.72
82788;DHT22;72529;51.786;4.662;2023-08-30T07:51:21;16.10;82.69
82788;DHT22;72529;51.786;4.662;2023-08-30T07:53:47;16.13;83.00
82788;DHT22;72529;51.786;4.662;2023-08-30T07:56:12;16.18;82.78
82788;DHT22;72529;51.786;4.662;2023-08-30T07:58:40;16.21;82.88
82788;DHT22;72529;51.786;4.662;2023-08-30T08:01:06;16.28;83.12
82788;DHT22;72529;51.786;4.662;2023-08-30T08:03:31;16.40;82.99
82788;DHT22;72529;51.786;4.662;2023-08-30T08:05:58;16.47;83.21
82788;DHT22;72529;51.786;4.662;2023-08-30T08:08:24;16.59;84.06
82788;DHT22;72529;51.786;4.662;2023-08-30T08:10:50;16.73;82.70
82788;DHT22;72529;51.786;4.662;2023-08-30T08:13:15;16.87;82.87
82788;DHT22;72529;51.786;4.662;2023-08-30T08:15:41;16.99;83.13
82788;DHT22;72529;51.786;4.662;2023-08-30T08:18:06;17.09;84.04
82788;DHT22;72529;51.786;4.662;2023-08-30T08:20:32;17.17;83.54
82788;DHT22;72529;51.786;4.662;2023-08-30T08:22:58;17.22;82.91
82788;DHT22;72529;51.786;4.662;2023-08-30T08:25:24;17.24;83.15
82788;DHT22;72529;51.786;4.662;2023-08-30T08:27:49;17.34;82.57
82788;DHT22;72529;51.786;4.662;2023-08-30T08:30:16;17.36;82.55
82788;DHT22;72529;51.786;4.662;2023-08-30T08:32:41;17.44;82.21
82788;DHT22;72529;51.786;4.662;2023-08-30T08:35:07;17.49;83.53
82788;DHT22;72529;51.786;4.662;2023-08-30T08:37:32;17.66;84.36
82788;DHT22;72529;51.786;4.662;2023-08-30T08:39:58;17.80;83.01
82788;DHT22;72529;51.786;4.662;2023-08-30T08:42:23;17.95;82.05
82788;DHT22;72529;51.786;4.662;2023-08-30T08:44:54;17.90;82.13
82788;DHT22;72529;51.786;4.662;2023-08-30T08:47:21;17.84;79.90
82788;DHT22;72529;51.786;4.662;2023-08-30T08:49:47;17.73;80.78
82788;DHT22;72529;51.786;4.662;2023-08-30T08:52:16;17.75;82.08
82788;DHT22;72529;51.786;4.662;2023-08-30T08:54:43;17.81;80.29
82788;DHT22;72529;51.786;4.662;2023-08-30T08:57:08;17.84;80.12
82788;DHT22;72529;51.786;4.662;2023-08-30T08:59:34;17.90;79.76
82788;DHT22;72529;51.786;4.662;2023-08-30T09:02:00;18.06;80.39
82788;DHT22;72529;51.786;4.662;2023-08-30T09:04:30;18.35;81.05
82788;DHT22;72529;51.786;4.662;2023-08-30T09:06:58;18.42;79.12
82788;DHT22;72529;51.786;4.662;2023-08-30T09:09:24;18.42;79.46
82788;DHT22;72529;51.786;4.662;2023-08-30T09:11:50;18.32;78.55
82788;DHT22;72529;51.786;4.662;2023-08-30T09:14:15;18.14;77.36
82788;DHT22;72529;51.786;4.662;2023-08-30T09:16:42;18.01;77.68
82788;DHT22;72529;51.786;4.662;2023-08-30T09:19:07;18.01;77.17
82788;DHT22;72529;51.786;4.662;2023-08-30T09:21:34;18.11;77.47
82788;DHT22;72529;51.786;4.662;2023-08-30T09:24:03;18.24;76.50
82788;DHT22;72529;51.786;4.662;2023-08-30T09:26:30;18.15;76.87
82788;DHT22;72529;51.786;4.662;2023-08-30T09:29:06;18.01;76.49
82788;DHT22;72529;51.786;4.662;2023-08-30T09:31:35;17.91;76.42
82788;DHT22;72529;51.786;4.662;2023-08-30T09:34:02;17.82;77.39
82788;DHT22;72529;51.786;4.662;2023-08-30T09:36:38;17.87;78.12
82788;DHT22;72529;51.786;4.662;2023-08-30T09:39:08;17.78;80.22
82788;DHT22;72529;51.786;4.662;2023-08-30T09:41:41;17.64;81.63
82788;DHT22;72529;51.786;4.662;2023-08-30T09:44:13;17.57;81.37
82788;DHT22;72529;51.786;4.662;2023-08-30T09:49:12;17.69;82.62
82788;DHT22;72529;51.786;4.662;2023-08-30T09:51:40;17.90;83.93
82788;DHT22;72529;51.786;4.662;2023-08-30T09:54:19;18.25;82.49
82788;DHT22;72529;51.786;4.662;2023-08-30T09:56:46;18.38;78.33
82788;DHT22;72529;51.786;4.662;2023-08-30T09:59:13;18.26;78.52
82788;DHT22;72529;51.786;4.662;2023-08-30T10:01:43;18.00;77.93
82788;DHT22;72529;51.786;4.662;2023-08-30T10:04:10;17.87;79.41
82788;DHT22;72529;51.786;4.662;2023-08-30T10:06:37;17.95;77.39
82788;DHT22;72529;51.786;4.662;2023-08-30T10:09:03;17.88;79.89
82788;DHT22;72529;51.786;4.662;2023-08-30T10:11:32;17.91;77.83
82788;DHT22;72529;51.786;4.662;2023-08-30T10:13:59;18.11;78.00
82788;DHT22;72529;51.786;4.662;2023-08-30T10:16:26;18.29;77.14
82788;DHT22;72529;51.786;4.662;2023-08-30T10:19:03;18.18;75.85
82788;DHT22;72529;51.786;4.662;2023-08-30T10:21:34;18.04;75.69
82788;DHT22;72529;51.786;4.662;2023-08-30T10:24:00;18.24;76.12
82788;DHT22;72529;51.786;4.662;2023-08-30T10:26:30;18.38;75.30
82788;DHT22;72529;51.786;4.662;2023-08-30T10:28:58;18.53;74.92
82788;DHT22;72529;51.786;4.662;2023-08-30T10:31:27;18.57;76.73
82788;DHT22;72529;51.786;4.662;2023-08-30T10:33:53;18.83;75.24
82788;DHT22;72529;51.786;4.662;2023-08-30T10:36:23;18.99;73.30
82788;DHT22;72529;51.786;4.662;2023-08-30T10:38:55;18.99;72.22
82788;DHT22;72529;51.786;4.662;2023-08-30T10:41:25;19.02;75.08
82788;DHT22;72529;51.786;4.662;2023-08-30T10:43:52;19.21;75.04
82788;DHT22;72529;51.786;4.662;2023-08-30T10:46:32;19.40;73.44
82788;DHT22;72529;51.786;4.662;2023-08-30T10:49:14;19.50;69.84
82788;DHT22;72529;51.786;4.662;2023-08-30T10:51:40;19.31;71.36
82788;DHT22;72529;51.786;4.662;2023-08-30T10:54:24;19.21;72.48
82788;DHT22;72529;51.786;4.662;2023-08-30T10:56:56;18.87;70.83
82788;DHT22;72529;51.786;4.662;2023-08-30T10:59:23;18.46;70.83
82788;DHT22;72529;51.786;4.662;2023-08-30T11:01:51;18.26;73.41
82788;DHT22;72529;51.786;4.662;2023-08-30T11:04:18;18.39;73.30
82788;DHT22;72529;51.786;4.662;2023-08-30T11:06:49;18.52;72.99
82788;DHT22;72529;51.786;4.662;2023-08-30T11:09:20;18.59;70.77
82788;DHT22;72529;51.786;4.662;2023-08-30T11:11:47;18.70;70.90
82788;DHT22;72529;51.786;4.662;2023-08-30T11:14:13;18.70;71.75
82788;DHT22;72529;51.786;4.662;2023-08-30T11:16:39;18.76;67.14
82788;DHT22;72529;51.786;4.662;2023-08-30T11:19:07;18.67;66.19
82788;DHT22;72529;51.786;4.662;2023-08-30T11:21:36;18.69;66.88
82788;DHT22;72529;51.786;4.662;2023-08-30T11:24:03;18.70;65.99
82788;DHT22;72529;51.786;4.662;2023-08-30T11:26:29;18.59;65.10
82788;DHT22;72529;51.786;4.662;2023-08-30T11:28:55;18.62;64.18
82788;DHT22;72529;51.786;4.662;2023-08-30T11:31:25;18.66;65.33
82788;DHT22;72529;51.786;4.662;2023-08-30T11:33:56;18.67;64.23
82788;DHT22;72529;51.786;4.662;2023-08-30T11:36:26;18.76;63.67
82788;DHT22;72529;51.786;4.662;2023-08-30T11:38:53;18.96;63.28
82788;DHT22;72529;51.786;4.662;2023-08-30T11:41:23;19.11;64.05
82788;DHT22;72529;51.786;4.662;2023-08-30T11:43:48;19.31;64.21
82788;DHT22;72529;51.786;4.662;2023-08-30T11:46:14;19.50;63.71
82788;DHT22;72529;51.786;4.662;2023-08-30T11:48:41;19.48;63.29
82788;DHT22;72529;51.786;4.662;2023-08-30T11:51:07;19.65;62.90
82788;DHT22;72529;51.786;4.662;2023-08-30T11:53:34;19.82;62.21
82788;DHT22;72529;51.786;4.662;2023-08-30T11:56:00;19.81;62.91
82788;DHT22;72529;51.786;4.662;2023-08-30T11:58:26;19.83;61.58
82788;DHT22;72529;51.786;4.662;2023-08-30T12:00:53;19.61;62.24
82788;DHT22;72529;51.786;4.662;2023-08-30T12:03:22;19.07;61.47
82788;DHT22;72529;51.786;4.662;2023-08-30T12:05:49;18.72;61.95
82788;DHT22;72529;51.786;4.662;2023-08-30T12:08:24;18.62;63.92
82788;DHT22;72529;51.786;4.662;2023-08-30T12:10:50;18.89;62.86
82788;DHT22;72529;51.786;4.662;2023-08-30T12:15:52;19.54;65.21
82788;DHT22;72529;51.786;4.662;2023-08-30T12:18:25;19.81;61.83
82788;DHT22;72529;51.786;4.662;2023-08-30T12:20:56;19.41;61.57
82788;DHT22;72529;51.786;4.662;2023-08-30T12:23:25;19.32;61.04
82788;DHT22;72529;51.786;4.662;2023-08-30T12:26:16;19.48;60.85
82788;DHT22;72529;51.786;4.662;2023-08-30T12:28:42;19.88;63.52
82788;DHT22;72529;51.786;4.662;2023-08-30T12:31:10;20.08;58.73
82788;DHT22;72529;51.786;4.662;2023-08-30T12:33:37;20.08;60.26
82788;DHT22;72529;51.786;4.662;2023-08-30T12:36:03;20.22;62.11
82788;DHT22;72529;51.786;4.662;2023-08-30T12:38:29;20.50;61.67
82788;DHT22;72529;51.786;4.662;2023-08-30T12:40:56;20.40;56.78
82788;DHT22;72529;51.786;4.662;2023-08-30T12:43:23;20.25;58.63
82788;DHT22;72529;51.786;4.662;2023-08-30T12:45:49;20.15;58.76
82788;DHT22;72529;51.786;4.662;2023-08-30T12:48:17;20.19;60.13
82788;DHT22;72529;51.786;4.662;2023-08-30T12:50:44;20.33;60.01
82788;DHT22;72529;51.786;4.662;2023-08-30T12:53:11;20.26;62.17
82788;DHT22;72529;51.786;4.662;2023-08-30T12:55:37;20.25;60.30
82788;DHT22;72529;51.786;4.662;2023-08-30T12:58:06;20.01;59.25
82788;DHT22;72529;51.786;4.662;2023-08-30T13:00:33;19.65;58.39
82788;DHT22;72529;51.786;4.662;2023-08-30T13:02:59;19.58;61.00
82788;DHT22;72529;51.786;4.662;2023-08-30T13:05:25;19.93;59.95
82788;DHT22;72529;51.786;4.662;2023-08-30T13:07:50;20.23;59.97
82788;DHT22;72529;51.786;4.662;2023-08-30T13:10:16;20.26;61.19
82788;DHT22;72529;51.786;4.662;2023-08-30T13:12:42;20.33;61.95
82788;DHT22;72529;51.786;4.662;2023-08-30T13:15:08;19.99;62.75
82788;DHT22;72529;51.786;4.662;2023-08-30T13:17:34;19.41;62.93
82788;DHT22;72529;51.786;4.662;2023-08-30T13:19:59;19.20;62.35
82788;DHT22;72529;51.786;4.662;2023-08-30T13:22:27;19.17;61.04
82788;DHT22;72529;51.786;4.662;2023-08-30T13:24:53;19.20;62.75
82788;DHT22;72529;51.786;4.662;2023-08-30T13:27:19;19.37;62.52
82788;DHT22;72529;51.786;4.662;2023-08-30T13:29:44;19.68;62.20
82788;DHT22;72529;51.786;4.662;2023-08-30T13:32:10;20.05;61.14
82788;DHT22;72529;51.786;4.662;2023-08-30T13:34:37;19.55;60.22
82788;DHT22;72529;51.786;4.662;2023-08-30T13:37:02;19.46;61.40
82788;DHT22;72529;51.786;4.662;2023-08-30T13:39:29;19.16;60.75
82788;DHT22;72529;51.786;4.662;2023-08-30T13:41:54;19.61;61.81
82788;DHT22;72529;51.786;4.662;2023-08-30T13:44:19;19.83;59.93
82788;DHT22;72529;51.786;4.662;2023-08-30T13:46:45;19.67;61.08
82788;DHT22;72529;51.786;4.662;2023-08-30T13:49:14;19.55;62.19
82788;DHT22;72529;51.786;4.662;2023-08-30T13:51:40;19.72;62.46
82788;DHT22;72529;51.786;4.662;2023-08-30T13:54:06;19.61;62.92
82788;DHT22;72529;51.786;4.662;2023-08-30T13:56:31;19.26;62.58
82788;DHT22;72529;51.786;4.662;2023-08-30T13:58:57;19.26;62.58
82788;DHT22;72529;51.786;4.662;2023-08-30T14:01:23;19.16;62.73
82788;DHT22;72529;51.786;4.662;2023-08-30T14:03:49;18.92;61.92
82788;DHT22;72529;51.786;4.662;2023-08-30T14:06:14;18.96;61.27
82788;DHT22;72529;51.786;4.662;2023-08-30T14:08:40;18.86;62.37
82788;DHT22;72529;51.786;4.662;2023-08-30T14:11:05;18.69;62.20
82788;DHT22;72529;51.786;4.662;2023-08-30T14:13:31;19.00;61.77
82788;DHT22;72529;51.786;4.662;2023-08-30T14:16:03;19.46;63.07
82788;DHT22;72529;51.786;4.662;2023-08-30T14:18:31;19.93;60.79
82788;DHT22;72529;51.786;4.662;2023-08-30T14:20:58;20.04;61.32
82788;DHT22;72529;51.786;4.662;2023-08-30T14:23:28;20.32;59.12
82788;DHT22;72529;51.786;4.662;2023-08-30T14:26:03;20.28;58.98
82788;DHT22;72529;51.786;4.662;2023-08-30T14:28:35;20.09;58.00
82788;DHT22;72529;51.786;4.662;2023-08-30T14:31:01;19.96;58.49
82788;DHT22;72529;51.786;4.662;2023-08-30T14:33:26;20.18;59.64
82788;DHT22;72529;51.786;4.662;2023-08-30T14:35:52;20.26;57.19
82788;DHT22;72529;51.786;4.662;2023-08-30T14:38:17;19.95;59.17
82788;DHT22;72529;51.786;4.662;2023-08-30T14:40:43;20.06;58.34
82788;DHT22;72529;51.786;4.662;2023-08-30T14:43:08;20.02;58.86
82788;DHT22;72529;51.786;4.662;2023-08-30T14:45:34;19.89;55.84
82788;DHT22;72529;51.786;4.662;2023-08-30T14:47:59;19.61;58.02
82788;DHT22;72529;51.786;4.662;2023-08-30T14:50:25;19.70;57.32
82788;DHT22;72529;51.786;4.662;2023-08-30T14:52:50;19.44;57.64
82788;DHT22;72529;51.786;4.662;2023-08-30T14:55:17;19.50;56.01
82788;DHT22;72529;51.786;4.662;2023-08-30T14:57:43;19.43;59.28
82788;DHT22;72529;51.786;4.662;2023-08-30T15:00:08;19.54;58.81
82788;DHT22;72529;51.786;4.662;2023-08-30T15:02:34;19.60;57.29
82788;DHT22;72529;51.786;4.662;2023-08-30T15:04:59;19.72;57.98
82788;DHT22;72529;51.786;4.662;2023-08-30T15:07:25;19.60;58.08
82788;DHT22;72529;51.786;4.662;2023-08-30T15:09:50;19.65;60.45
82788;DHT22;72529;51.786;4.662;2023-08-30T15:12:16;19.21;58.64
82788;DHT22;72529;51.786;4.662;2023-08-30T15:14:42;18.89;59.61
82788;DHT22;72529;51.786;4.662;2023-08-30T15:17:08;18.70;61.31
82788;DHT22;72529;51.786;4.662;2023-08-30T15:19:35;18.70;61.29
82788;DHT22;72529;51.786;4.662;2023-08-30T15:22:01;19.10;61.04
82788;DHT22;72529;51.786;4.662;2023-08-30T15:24:26;19.47;60.43
82788;DHT22;72529;51.786;4.662;2023-08-30T15:26:52;19.62;58.60
82788;DHT22;72529;51.786;4.662;2023-08-30T15:29:17;19.58;59.23
82788;DHT22;72529;51.786;4.662;2023-08-30T15:31:43;19.50;59.42
82788;DHT22;72529;51.786;4.662;2023-08-30T15:34:09;19.65;59.93
82788;DHT22;72529;51.786;4.662;2023-08-30T15:36:34;19.78;60.65